sensor_id;sensor_type;location;lat;lon;timestamp;temperature;humidity
25334;DHT22;24559;53.590;9.764;2023-04-22T00:02:10;12.80;99.90
25334;DHT22;24559;53.590;9.764;2023-04-22T00:04:37;12.80;99.90
25334;DHT22;24559;53.590;9.764;2023-04-22T00:07:03;12.80;99.90
25334;DHT22;24559;53.590;9.764;2023-04-22T00:09:28;12.70;99.90
25334;DHT22;24559;53.590;9.764;2023-04-22T00:11:54;12.70;99.90
25334;DHT22;24559;53.590;9.764;2023-04-22T00:14:20;12.70;99.90
25334;DHT22;24559;53.590;9.764;2023-04-22T00:16:46;12.70;99.90
25334;DHT22;24559;53.590;9.764;2023-04-22T00:19:11;12.70;99.90
25334;DHT22;24559;53.590;9.764;2023-04-22T00:21:37;12.70;99.90
25334;DHT22;24559;53.590;9.764;2023-04-22T00:24:06;12.70;99.90
25334;DHT22;24559;53.590;9.764;2023-04-22T00:26:32;12.70;99.90
25334;DHT22;24559;53.590;9.764;2023-04-22T00:28:58;12.70;99.90
25334;DHT22;24559;53.590;9.764;2023-04-22T00:31:26;12.70;99.90
25334;DHT22;24559;53.590;9.764;2023-04-22T00:33:52;12.60;99.90
25334;DHT22;24559;53.590;9.764;2023-04-22T00:36:18;12.60;99.90
25334;DHT22;24559;53.590;9.764;2023-04-22T00:38:45;12.60;99.90
25334;DHT22;24559;53.590;9.764;2023-04-22T00:41:12;12.60;99.90
25334;DHT22;24559;53.590;9.764;2023-04-22T00:43:38;12.50;99.90
25334;DHT22;24559;53.590;9.764;2023-04-22T00:46:04;12.40;99.90
25334;DHT22;24559;53.590;9.764;2023-04-22T00:48:30;12.40;99.90
25334;DHT22;24559;53.590;9.764;2023-04-22T00:50:56;12.30;99.90
25334;DHT22;24559;53.590;9.764;2023-04-22T00:53:22;12.30;99.90
25334;DHT22;24559;53.590;9.764;2023-04-22T00:55:47;12.30;99.90
25334;DHT22;24559;53.590;9.764;2023-04-22T00:58:13;12.80;99.90
25334;DHT22;24559;53.590;9.764;2023-04-22T01:00:39;12.20;99.90
25334;DHT22;24559;53.590;9.764;2023-04-22T01:03:05;12.20;99.90
25334;DHT22;24559;53.590;9.764;2023-04-22T01:05:31;12.20;99.90
25334;DHT22;24559;53.590;9.764;2023-04-22T01:07:57;12.30;99.90
25334;DHT22;24559;53.590;9.764;2023-04-22T01:10:23;12.30;99.90
25334;DHT22;24559;53.590;9.764;2023-04-22T01:12:50;12.30;99.90
25334;DHT22;24559;53.590;9.764;2023-04-22T01:15:15;12.90;99.90
25334;DHT22;24559;53.590;9.764;2023-04-22T01:17:41;12.30;99.90
25334;DHT22;24559;53.590;9.764;2023-04-22T01:20:07;12.30;99.90
25334;DHT22;24559;53.590;9.764;2023-04-22T01:22:39;12.20;99.90
25334;DHT22;24559;53.590;9.764;2023-04-22T01:25:05;12.20;99.90
25334;DHT22;24559;53.590;9.764;2023-04-22T01:27:31;12.10;99.90
25334;DHT22;24559;53.590;9.764;2023-04-22T01:29:57;12.20;99.90
25334;DHT22;24559;53.590;9.764;2023-04-22T01:32:23;12.20;99.90
25334;DHT22;24559;53.590;9.764;2023-04-22T01:34:48;12.80;99.90
25334;DHT22;24559;53.590;9.764;2023-04-22T01:37:16;12.30;99.90
25334;DHT22;24559;53.590;9.764;2023-04-22T01:39:42;12.30;99.90
25334;DHT22;24559;53.590;9.764;2023-04-22T01:42:08;12.40;99.90
25334;DHT22;24559;53.590;9.764;2023-04-22T01:44:34;12.40;99.90
25334;DHT22;24559;53.590;9.764;2023-04-22T01:47:00;12.50;99.90
25334;DHT22;24559;53.590;9.764;2023-04-22T01:49:26;12.40;99.90
25334;DHT22;24559;53.590;9.764;2023-04-22T01:51:52;12.60;99.90
25334;DHT22;24559;53.590;9.764;2023-04-22T01:54:18;12.60;99.90
25334;DHT22;24559;53.590;9.764;2023-04-22T01:56:51;12.60;99.90
25334;DHT22;24559;53.590;9.764;2023-04-22T01:59:18;12.80;99.90
25334;DHT22;24559;53.590;9.764;2023-04-22T02:01:44;12.80;99.90
25334;DHT22;24559;53.590;9.764;2023-04-22T02:04:09;12.80;99.90
25334;DHT22;24559;53.590;9.764;2023-04-22T02:06:35;12.90;99.90
25334;DHT22;24559;53.590;9.764;2023-04-22T02:09:04;12.90;99.90
25334;DHT22;24559;53.590;9.764;2023-04-22T02:11:30;12.30;99.90
25334;DHT22;24559;53.590;9.764;2023-04-22T02:13:57;13.00;99.90
25334;DHT22;24559;53.590;9.764;2023-04-22T02:16:23;13.60;99.90
25334;DHT22;24559;53.590;9.764;2023-04-22T02:18:49;13.10;99.90
25334;DHT22;24559;53.590;9.764;2023-04-22T02:21:15;13.00;99.90
25334;DHT22;24559;53.590;9.764;2023-04-22T02:23:40;13.00;99.90
25334;DHT22;24559;53.590;9.764;2023-04-22T02:26:06;13.20;99.90
25334;DHT22;24559;53.590;9.764;2023-04-22T02:28:33;13.10;99.90
25334;DHT22;24559;53.590;9.764;2023-04-22T02:30:59;13.10;99.90
25334;DHT22;24559;53.590;9.764;2023-04-22T02:33:25;13.10;99.90
25334;DHT22;24559;53.590;9.764;2023-04-22T02:35:52;13.10;99.90
25334;DHT22;24559;53.590;9.764;2023-04-22T02:38:18;13.10;99.90
25334;DHT22;24559;53.590;9.764;2023-04-22T02:40:44;13.60;99.90
25334;DHT22;24559;53.590;9.764;2023-04-22T02:43:11;13.30;99.90
25334;DHT22;24559;53.590;9.764;2023-04-22T02:45:37;13.20;99.90
25334;DHT22;24559;53.590;9.764;2023-04-22T02:48:05;13.10;99.90
25334;DHT22;24559;53.590;9.764;2023-04-22T02:50:31;13.20;99.90
25334;DHT22;24559;53.590;9.764;2023-04-22T02:52:57;13.10;99.90
25334;DHT22;24559;53.590;9.764;2023-04-22T02:55:22;13.20;99.90
25334;DHT22;24559;53.590;9.764;2023-04-22T02:57:49;13.30;99.90
25334;DHT22;24559;53.590;9.764;2023-04-22T03:00:15;13.30;99.90
25334;DHT22;24559;53.590;9.764;2023-04-22T03:02:40;13.40;99.90
25334;DHT22;24559;53.590;9.764;2023-04-22T03:05:10;13.20;99.90
25334;DHT22;24559;53.590;9.764;2023-04-22T03:07:36;13.20;99.90
25334;DHT22;24559;53.590;9.764;2023-04-22T03:10:01;13.20;99.90
25334;DHT22;24559;53.590;9.764;2023-04-22T03:12:27;13.10;99.90
25334;DHT22;24559;53.590;9.764;2023-04-22T03:14:53;13.10;99.90
25334;DHT22;24559;53.590;9.764;2023-04-22T03:17:21;13.20;99.90
25334;DHT22;24559;53.590;9.764;2023-04-22T03:19:47;13.10;99.90
25334;DHT22;24559;53.590;9.764;2023-04-22T03:22:13;13.10;99.90
25334;DHT22;24559;53.590;9.764;2023-04-22T03:24:40;13.00;99.90
25334;DHT22;24559;53.590;9.764;2023-04-22T03:27:08;13.00;99.90
25334;DHT22;24559;53.590;9.764;2023-04-22T03:29:34;12.90;99.90
25334;DHT22;24559;53.590;9.764;2023-04-22T03:32:00;13.10;99.90
25334;DHT22;24559;53.590;9.764;2023-04-22T03:34:26;13.00;99.90
25334;DHT22;24559;53.590;9.764;2023-04-22T03:36:51;13.00;99.90
25334;DHT22;24559;53.590;9.764;2023-04-22T03:39:18;13.00;99.90
25334;DHT22;24559;53.590;9.764;2023-04-22T03:41:44;12.80;99.90
25334;DHT22;24559;53.590;9.764;2023-04-22T03:44:10;12.80;99.90
25334;DHT22;24559;53.590;9.764;2023-04-22T03:46:36;12.90;99.90
25334;DHT22;24559;53.590;9.764;2023-04-22T03:49:12;12.90;99.90
25334;DHT22;24559;53.590;9.764;2023-04-22T03:51:38;12.90;99.90
25334;DHT22;24559;53.590;9.764;2023-04-22T03:54:09;12.80;99.90
25334;DHT22;24559;53.590;9.764;2023-04-22T03:56:40;12.80;99.90
25334;DHT22;24559;53.590;9.764;2023-04-22T03:59:05;12.90;99.90
25334;DHT22;24559;53.590;9.764;2023-04-22T04:01:32;13.00;99.90
25334;DHT22;24559;53.590;9.764;2023-04-22T04:04:02;13.60;99.90
25334;DHT22;24559;53.590;9.764;2023-04-22T04:06:35;13.50;99.90
25334;DHT22;24559;53.590;9.764;2023-04-22T04:09:03;13.30;99.90
25334;DHT22;24559;53.590;9.764;2023-04-22T04:11:30;12.80;99.90
25334;DHT22;24559;53.590;9.764;2023-04-22T04:13:56;12.90;99.90
25334;DHT22;24559;53.590;9.764;2023-04-22T04:16:30;12.80;99.90
25334;DHT22;24559;53.590;9.764;2023-04-22T04:19:04;12.80;99.90
25334;DHT22;24559;53.590;9.764;2023-04-22T04:21:32;13.50;99.90
25334;DHT22;24559;53.590;9.764;2023-04-22T04:23:58;12.80;99.90
25334;DHT22;24559;53.590;9.764;2023-04-22T04:26:28;13.00;99.90
25334;DHT22;24559;53.590;9.764;2023-04-22T04:29:02;12.90;99.90
25334;DHT22;24559;53.590;9.764;2023-04-22T04:31:28;13.00;99.90
25334;DHT22;24559;53.590;9.764;2023-04-22T04:33:56;13.30;99.90
25334;DHT22;24559;53.590;9.764;2023-04-22T04:36:22;13.00;99.90
25334;DHT22;24559;53.590;9.764;2023-04-22T04:38:54;12.90;99.90
25334;DHT22;24559;53.590;9.764;2023-04-22T04:41:20;12.90;99.90
25334;DHT22;24559;53.590;9.764;2023-04-22T04:43:47;12.90;99.90
25334;DHT22;24559;53.590;9.764;2023-04-22T04:46:21;12.90;99.90
25334;DHT22;24559;53.590;9.764;2023-04-22T04:48:51;13.30;99.90
25334;DHT22;24559;53.590;9.764;2023-04-22T04:51:18;12.80;99.90
25334;DHT22;24559;53.590;9.764;2023-04-22T04:53:50;12.90;99.90
25334;DHT22;24559;53.590;9.764;2023-04-22T04:56:16;13.00;99.90
25334;DHT22;24559;53.590;9.764;2023-04-22T04:58:43;13.40;99.90
25334;DHT22;24559;53.590;9.764;2023-04-22T05:01:14;12.80;99.90
25334;DHT22;24559;53.590;9.764;2023-04-22T05:03:42;12.90;99.90
25334;DHT22;24559;53.590;9.764;2023-04-22T05:06:07;13.00;99.90
25334;DHT22;24559;53.590;9.764;2023-04-22T05:08:37;13.00;99.90
25334;DHT22;24559;53.590;9.764;2023-04-22T05:11:07;13.10;99.90
25334;DHT22;24559;53.590;9.764;2023-04-22T05:13:33;13.00;99.90
25334;DHT22;24559;53.590;9.764;2023-04-22T05:15:59;13.00;99.90
25334;DHT22;24559;53.590;9.764;2023-04-22T05:18:25;13.20;99.90
25334;DHT22;24559;53.590;9.764;2023-04-22T05:20:52;13.20;99.90
25334;DHT22;24559;53.590;9.764;2023-04-22T05:23:20;13.20;99.90
25334;DHT22;24559;53.590;9.764;2023-04-22T05:25:48;13.20;99.90
25334;DHT22;24559;53.590;9.764;2023-04-22T05:28:14;13.30;99.90
25334;DHT22;24559;53.590;9.764;2023-04-22T05:30:47;13.30;99.90
25334;DHT22;24559;53.590;9.764;2023-04-22T05:33:13;13.40;99.90
25334;DHT22;24559;53.590;9.764;2023-04-22T05:35:39;13.40;99.90
25334;DHT22;24559;53.590;9.764;2023-04-22T05:38:06;13.50;99.90
25334;DHT22;24559;53.590;9.764;2023-04-22T05:40:34;13.50;99.90
25334;DHT22;24559;53.590;9.764;2023-04-22T05:43:02;13.60;99.90
25334;DHT22;24559;53.590;9.764;2023-04-22T05:45:28;13.70;99.90
25334;DHT22;24559;53.590;9.764;2023-04-22T05:47:54;13.60;99.90
25334;DHT22;24559;53.590;9.764;2023-04-22T05:50:21;13.50;99.90
25334;DHT22;24559;53.590;9.764;2023-04-22T05:52:53;13.70;99.90
25334;DHT22;24559;53.590;9.764;2023-04-22T05:55:19;13.70;99.90
25334;DHT22;24559;53.590;9.764;2023-04-22T05:57:45;13.80;99.90
25334;DHT22;24559;53.590;9.764;2023-04-22T06:00:27;14.00;99.90
25334;DHT22;24559;53.590;9.764;2023-04-22T06:03:11;14.20;99.90
25334;DHT22;24559;53.590;9.764;2023-04-22T06:05:37;14.30;99.90
25334;DHT22;24559;53.590;9.764;2023-04-22T06:08:03;14.50;99.90
25334;DHT22;24559;53.590;9.764;2023-04-22T06:10:29;14.80;99.90
25334;DHT22;24559;53.590;9.764;2023-04-22T06:12:54;14.80;99.90
25334;DHT22;24559;53.590;9.764;2023-04-22T06:15:20;15.00;99.90
25334;DHT22;24559;53.590;9.764;2023-04-22T06:17:47;15.30;99.90
25334;DHT22;24559;53.590;9.764;2023-04-22T06:20:13;15.50;99.90
25334;DHT22;24559;53.590;9.764;2023-04-22T06:22:40;15.80;99.90
25334;DHT22;24559;53.590;9.764;2023-04-22T06:25:08;16.00;99.90
25334;DHT22;24559;53.590;9.764;2023-04-22T06:27:33;16.20;99.90
25334;DHT22;24559;53.590;9.764;2023-04-22T06:30:00;16.60;99.90
25334;DHT22;24559;53.590;9.764;2023-04-22T06:32:25;16.60;99.90
25334;DHT22;24559;53.590;9.764;2023-04-22T06:34:51;16.70;99.90
25334;DHT22;24559;53.590;9.764;2023-04-22T06:37:17;16.80;99.90
25334;DHT22;24559;53.590;9.764;2023-04-22T06:39:44;17.00;99.90
25334;DHT22;24559;53.590;9.764;2023-04-22T06:42:45;17.00;99.90
25334;DHT22;24559;53.590;9.764;2023-04-22T06:45:43;17.20;99.90
25334;DHT22;24559;53.590;9.764;2023-04-22T06:48:26;17.50;99.90
25334;DHT22;24559;53.590;9.764;2023-04-22T06:51:15;17.70;99.90
25334;DHT22;24559;53.590;9.764;2023-04-22T06:53:41;17.60;99.90
25334;DHT22;24559;53.590;9.764;2023-04-22T06:56:09;17.70;99.90
25334;DHT22;24559;53.590;9.764;2023-04-22T06:58:42;17.70;99.90
25334;DHT22;24559;53.590;9.764;2023-04-22T07:01:13;17.70;99.90
25334;DHT22;24559;53.590;9.764;2023-04-22T07:03:40;17.70;99.90
25334;DHT22;24559;53.590;9.764;2023-04-22T07:06:09;18.00;99.90
25334;DHT22;24559;53.590;9.764;2023-04-22T07:08:35;17.30;99.90
25334;DHT22;24559;53.590;9.764;2023-04-22T07:11:01;17.80;99.90
25334;DHT22;24559;53.590;9.764;2023-04-22T07:13:39;17.90;99.90
25334;DHT22;24559;53.590;9.764;2023-04-22T07:16:05;18.20;99.90
25334;DHT22;24559;53.590;9.764;2023-04-22T07:18:31;18.40;99.90
25334;DHT22;24559;53.590;9.764;2023-04-22T07:20:56;18.50;99.90
25334;DHT22;24559;53.590;9.764;2023-04-22T07:23:22;18.80;99.90
25334;DHT22;24559;53.590;9.764;2023-04-22T07:25:48;18.90;99.90
25334;DHT22;24559;53.590;9.764;2023-04-22T07:28:13;18.90;99.90
25334;DHT22;24559;53.590;9.764;2023-04-22T07:30:39;18.70;99.90
25334;DHT22;24559;53.590;9.764;2023-04-22T07:33:05;18.90;99.90
25334;DHT22;24559;53.590;9.764;2023-04-22T07:35:31;19.10;99.90
25334;DHT22;24559;53.590;9.764;2023-04-22T07:37:56;19.30;99.90
25334;DHT22;24559;53.590;9.764;2023-04-22T07:40:22;19.50;99.90
25334;DHT22;24559;53.590;9.764;2023-04-22T07:42:47;19.70;99.90
25334;DHT22;24559;53.590;9.764;2023-04-22T07:45:13;19.90;99.90
25334;DHT22;24559;53.590;9.764;2023-04-22T07:47:39;20.00;98.80
25334;DHT22;24559;53.590;9.764;2023-04-22T07:50:05;20.30;99.90
25334;DHT22;24559;53.590;9.764;2023-04-22T07:52:31;20.40;93.70
25334;DHT22;24559;53.590;9.764;2023-04-22T07:54:57;20.60;98.90
25334;DHT22;24559;53.590;9.764;2023-04-22T07:57:22;20.70;93.00
25334;DHT22;24559;53.590;9.764;2023-04-22T07:59:49;20.80;92.80
25334;DHT22;24559;53.590;9.764;2023-04-22T08:02:14;20.80;90.10
25334;DHT22;24559;53.590;9.764;2023-04-22T08:04:40;20.80;96.70
25334;DHT22;24559;53.590;9.764;2023-04-22T08:07:06;21.00;96.60
25334;DHT22;24559;53.590;9.764;2023-04-22T08:09:31;21.20;96.50
25334;DHT22;24559;53.590;9.764;2023-04-22T08:11:57;21.40;92.40
25334;DHT22;24559;53.590;9.764;2023-04-22T08:14:23;21.50;94.20
25334;DHT22;24559;53.590;9.764;2023-04-22T08:16:52;21.60;93.10
25334;DHT22;24559;53.590;9.764;2023-04-22T08:19:18;21.90;94.50
25334;DHT22;24559;53.590;9.764;2023-04-22T08:21:46;22.20;86.50
25334;DHT22;24559;53.590;9.764;2023-04-22T08:24:13;22.40;86.50
25334;DHT22;24559;53.590;9.764;2023-04-22T08:26:38;22.50;84.20
25334;DHT22;24559;53.590;9.764;2023-04-22T08:29:05;22.30;88.90
25334;DHT22;24559;53.590;9.764;2023-04-22T08:31:32;22.40;87.10
25334;DHT22;24559;53.590;9.764;2023-04-22T08:33:58;22.50;84.40
25334;DHT22;24559;53.590;9.764;2023-04-22T08:36:24;22.60;84.80
25334;DHT22;24559;53.590;9.764;2023-04-22T08:38:51;22.70;85.20
25334;DHT22;24559;53.590;9.764;2023-04-22T08:41:17;22.90;87.10
25334;DHT22;24559;53.590;9.764;2023-04-22T08:43:46;23.20;77.70
25334;DHT22;24559;53.590;9.764;2023-04-22T08:46:12;23.00;82.80
25334;DHT22;24559;53.590;9.764;2023-04-22T08:48:39;23.10;83.70
25334;DHT22;24559;53.590;9.764;2023-04-22T08:51:06;23.30;81.60
25334;DHT22;24559;53.590;9.764;2023-04-22T08:53:33;23.40;77.40
25334;DHT22;24559;53.590;9.764;2023-04-22T08:55:58;23.40;77.70
25334;DHT22;24559;53.590;9.764;2023-04-22T08:58:25;23.40;75.60
25334;DHT22;24559;53.590;9.764;2023-04-22T09:00:53;23.40;80.80
25334;DHT22;24559;53.590;9.764;2023-04-22T09:03:18;23.50;80.30
25334;DHT22;24559;53.590;9.764;2023-04-22T09:05:44;23.50;84.00
25334;DHT22;24559;53.590;9.764;2023-04-22T09:08:11;23.80;75.60
25334;DHT22;24559;53.590;9.764;2023-04-22T09:10:37;24.10;81.10
25334;DHT22;24559;53.590;9.764;2023-04-22T09:13:04;24.20;75.80
25334;DHT22;24559;53.590;9.764;2023-04-22T09:15:30;24.30;77.00
25334;DHT22;24559;53.590;9.764;2023-04-22T09:17:56;24.20;79.30
25334;DHT22;24559;53.590;9.764;2023-04-22T09:20:26;24.50;75.20
25334;DHT22;24559;53.590;9.764;2023-04-22T09:22:54;24.60;74.00
25334;DHT22;24559;53.590;9.764;2023-04-22T09:25:24;24.70;69.50
25334;DHT22;24559;53.590;9.764;2023-04-22T09:27:51;25.10;73.30
25334;DHT22;24559;53.590;9.764;2023-04-22T09:30:18;25.30;68.30
25334;DHT22;24559;53.590;9.764;2023-04-22T09:32:51;25.60;63.90
25334;DHT22;24559;53.590;9.764;2023-04-22T09:35:22;25.80;68.30
25334;DHT22;24559;53.590;9.764;2023-04-22T09:37:50;25.80;59.50
25334;DHT22;24559;53.590;9.764;2023-04-22T09:40:16;26.00;66.20
25334;DHT22;24559;53.590;9.764;2023-04-22T09:42:49;26.30;66.10
25334;DHT22;24559;53.590;9.764;2023-04-22T09:45:29;26.70;64.10
25334;DHT22;24559;53.590;9.764;2023-04-22T09:47:56;27.20;58.80
25334;DHT22;24559;53.590;9.764;2023-04-22T09:50:25;27.60;60.20
25334;DHT22;24559;53.590;9.764;2023-04-22T09:52:55;27.90;52.80
25334;DHT22;24559;53.590;9.764;2023-04-22T09:55:25;27.90;52.40
25334;DHT22;24559;53.590;9.764;2023-04-22T09:57:52;27.90;55.70
25334;DHT22;24559;53.590;9.764;2023-04-22T10:00:18;28.20;53.00
25334;DHT22;24559;53.590;9.764;2023-04-22T10:02:44;28.30;50.70
25334;DHT22;24559;53.590;9.764;2023-04-22T10:05:10;28.40;56.30
25334;DHT22;24559;53.590;9.764;2023-04-22T10:07:37;28.80;59.80
25334;DHT22;24559;53.590;9.764;2023-04-22T10:10:06;29.20;52.30
25334;DHT22;24559;53.590;9.764;2023-04-22T10:12:36;29.60;54.90
25334;DHT22;24559;53.590;9.764;2023-04-22T10:15:02;29.70;45.90
25334;DHT22;24559;53.590;9.764;2023-04-22T10:17:29;29.50;39.70
25334;DHT22;24559;53.590;9.764;2023-04-22T10:19:56;29.20;47.50
25334;DHT22;24559;53.590;9.764;2023-04-22T10:22:23;29.30;50.90
25334;DHT22;24559;53.590;9.764;2023-04-22T10:24:48;29.20;49.70
25334;DHT22;24559;53.590;9.764;2023-04-22T10:27:16;29.20;45.80
25334;DHT22;24559;53.590;9.764;2023-04-22T10:29:45;28.90;48.50
25334;DHT22;24559;53.590;9.764;2023-04-22T10:34:36;28.90;47.20
25334;DHT22;24559;53.590;9.764;2023-04-22T10:37:10;28.90;48.60
25334;DHT22;24559;53.590;9.764;2023-04-22T10:39:36;28.90;50.80
25334;DHT22;24559;53.590;9.764;2023-04-22T10:47:29;28.80;51.30
25334;DHT22;24559;53.590;9.764;2023-04-22T10:50:11;29.00;50.00
25334;DHT22;24559;53.590;9.764;2023-04-22T10:52:37;29.00;50.50
25334;DHT22;24559;53.590;9.764;2023-04-22T10:55:03;28.90;47.40
25334;DHT22;24559;53.590;9.764;2023-04-22T10:57:30;29.10;53.90
25334;DHT22;24559;53.590;9.764;2023-04-22T11:00:18;29.00;47.60
25334;DHT22;24559;53.590;9.764;2023-04-22T11:02:44;28.90;47.80
25334;DHT22;24559;53.590;9.764;2023-04-22T11:05:21;28.90;47.20
25334;DHT22;24559;53.590;9.764;2023-04-22T11:07:47;29.20;45.40
25334;DHT22;24559;53.590;9.764;2023-04-22T11:10:29;29.50;46.90
25334;DHT22;24559;53.590;9.764;2023-04-22T11:12:55;30.00;43.90
25334;DHT22;24559;53.590;9.764;2023-04-22T11:15:21;29.60;39.00
25334;DHT22;24559;53.590;9.764;2023-04-22T11:17:51;29.40;48.00
25334;DHT22;24559;53.590;9.764;2023-04-22T11:20:16;29.70;48.60
25334;DHT22;24559;53.590;9.764;2023-04-22T11:22:46;30.20;47.30
25334;DHT22;24559;53.590;9.764;2023-04-22T11:25:12;30.50;41.30
25334;DHT22;24559;53.590;9.764;2023-04-22T11:27:39;30.70;45.90
25334;DHT22;24559;53.590;9.764;2023-04-22T11:30:06;31.10;44.40
25334;DHT22;24559;53.590;9.764;2023-04-22T11:32:37;31.20;42.40
25334;DHT22;24559;53.590;9.764;2023-04-22T11:35:04;31.50;40.00
25334;DHT22;24559;53.590;9.764;2023-04-22T11:37:30;31.40;39.30
25334;DHT22;24559;53.590;9.764;2023-04-22T11:39:59;30.70;38.40
25334;DHT22;24559;53.590;9.764;2023-04-22T11:42:24;30.70;39.30
25334;DHT22;24559;53.590;9.764;2023-04-22T11:44:50;30.30;39.20
25334;DHT22;24559;53.590;9.764;2023-04-22T11:47:19;30.20;39.40
25334;DHT22;24559;53.590;9.764;2023-04-22T11:49:59;30.10;41.80
25334;DHT22;24559;53.590;9.764;2023-04-22T11:52:46;30.20;40.70
25334;DHT22;24559;53.590;9.764;2023-04-22T11:55:13;30.00;43.20
25334;DHT22;24559;53.590;9.764;2023-04-22T11:57:41;30.00;45.20
25334;DHT22;24559;53.590;9.764;2023-04-22T12:00:12;29.90;45.20
25334;DHT22;24559;53.590;9.764;2023-04-22T12:02:39;30.00;44.80
25334;DHT22;24559;53.590;9.764;2023-04-22T12:05:08;29.90;43.70
25334;DHT22;24559;53.590;9.764;2023-04-22T12:07:34;29.80;46.90
25334;DHT22;24559;53.590;9.764;2023-04-22T12:09:59;29.80;48.70
25334;DHT22;24559;53.590;9.764;2023-04-22T12:12:27;29.90;45.40
25334;DHT22;24559;53.590;9.764;2023-04-22T12:14:53;29.70;47.10
25334;DHT22;24559;53.590;9.764;2023-04-22T12:17:22;29.50;45.10
25334;DHT22;24559;53.590;9.764;2023-04-22T12:19:52;29.40;47.00
25334;DHT22;24559;53.590;9.764;2023-04-22T12:22:25;29.40;47.60
25334;DHT22;24559;53.590;9.764;2023-04-22T12:24:51;29.40;44.20
25334;DHT22;24559;53.590;9.764;2023-04-22T12:27:17;29.40;48.90
25334;DHT22;24559;53.590;9.764;2023-04-22T12:29:49;29.70;47.60
25334;DHT22;24559;53.590;9.764;2023-04-22T12:32:15;30.30;46.90
25334;DHT22;24559;53.590;9.764;2023-04-22T12:34:41;30.60;43.70
25334;DHT22;24559;53.590;9.764;2023-04-22T12:37:06;31.00;41.60
25334;DHT22;24559;53.590;9.764;2023-04-22T12:39:33;31.30;39.00
25334;DHT22;24559;53.590;9.764;2023-04-22T12:41:58;31.50;37.20
25334;DHT22;24559;53.590;9.764;2023-04-22T12:44:24;31.80;38.90
25334;DHT22;24559;53.590;9.764;2023-04-22T12:46:50;31.70;35.80
25334;DHT22;24559;53.590;9.764;2023-04-22T12:49:15;31.90;37.30
25334;DHT22;24559;53.590;9.764;2023-04-22T12:51:41;32.10;35.50
25334;DHT22;24559;53.590;9.764;2023-04-22T12:54:07;32.20;32.10
25334;DHT22;24559;53.590;9.764;2023-04-22T12:56:33;32.20;33.40
25334;DHT22;24559;53.590;9.764;2023-04-22T12:58:58;31.90;30.90
25334;DHT22;24559;53.590;9.764;2023-04-22T13:01:28;31.80;34.40
25334;DHT22;24559;53.590;9.764;2023-04-22T13:03:53;31.90;35.30
25334;DHT22;24559;53.590;9.764;2023-04-22T13:06:19;31.70;36.00
25334;DHT22;24559;53.590;9.764;2023-04-22T13:08:45;31.90;36.40
25334;DHT22;24559;53.590;9.764;2023-04-22T13:11:10;31.90;37.40
25334;DHT22;24559;53.590;9.764;2023-04-22T13:13:36;31.90;37.70
25334;DHT22;24559;53.590;9.764;2023-04-22T13:16:02;32.00;35.70
25334;DHT22;24559;53.590;9.764;2023-04-22T13:18:27;31.20;33.80
25334;DHT22;24559;53.590;9.764;2023-04-22T13:20:53;31.80;35.10
25334;DHT22;24559;53.590;9.764;2023-04-22T13:23:21;31.70;35.90
25334;DHT22;24559;53.590;9.764;2023-04-22T13:25:53;31.80;36.00
25334;DHT22;24559;53.590;9.764;2023-04-22T13:28:19;31.90;35.80
25334;DHT22;24559;53.590;9.764;2023-04-22T13:30:44;31.90;36.10
25334;DHT22;24559;53.590;9.764;2023-04-22T13:33:10;31.70;32.90
25334;DHT22;24559;53.590;9.764;2023-04-22T13:35:36;31.10;33.80
25334;DHT22;24559;53.590;9.764;2023-04-22T13:38:02;31.60;37.40
25334;DHT22;24559;53.590;9.764;2023-04-22T13:40:27;31.40;37.50
25334;DHT22;24559;53.590;9.764;2023-04-22T13:42:54;31.40;34.60
25334;DHT22;24559;53.590;9.764;2023-04-22T13:45:19;31.40;37.40
25334;DHT22;24559;53.590;9.764;2023-04-22T13:47:45;31.50;37.80
25334;DHT22;24559;53.590;9.764;2023-04-22T13:50:11;31.70;33.30
25334;DHT22;24559;53.590;9.764;2023-04-22T13:52:37;31.70;32.00
25334;DHT22;24559;53.590;9.764;2023-04-22T13:55:03;30.90;35.00
25334;DHT22;24559;53.590;9.764;2023-04-22T13:57:28;30.70;36.70
25334;DHT22;24559;53.590;9.764;2023-04-22T13:59:54;30.70;40.50
25334;DHT22;24559;53.590;9.764;2023-04-22T14:02:20;30.90;39.50
25334;DHT22;24559;53.590;9.764;2023-04-22T14:04:46;31.20;41.20
25334;DHT22;24559;53.590;9.764;2023-04-22T14:07:11;31.20;34.80
25334;DHT22;24559;53.590;9.764;2023-04-22T14:09:38;31.00;39.80
25334;DHT22;24559;53.590;9.764;2023-04-22T14:12:05;30.60;36.30
25334;DHT22;24559;53.590;9.764;2023-04-22T14:14:31;30.50;41.80
25334;DHT22;24559;53.590;9.764;2023-04-22T14:16:57;30.30;40.00
25334;DHT22;24559;53.590;9.764;2023-04-22T14:19:23;30.20;37.70
25334;DHT22;24559;53.590;9.764;2023-04-22T14:21:49;29.90;41.50
25334;DHT22;24559;53.590;9.764;2023-04-22T14:24:15;29.90;40.90
25334;DHT22;24559;53.590;9.764;2023-04-22T14:26:40;30.00;43.50
25334;DHT22;24559;53.590;9.764;2023-04-22T14:29:07;30.10;42.00
25334;DHT22;24559;53.590;9.764;2023-04-22T14:31:33;30.20;45.20
25334;DHT22;24559;53.590;9.764;2023-04-22T14:33:58;30.50;43.50
25334;DHT22;24559;53.590;9.764;2023-04-22T14:36:24;30.70;39.80
25334;DHT22;24559;53.590;9.764;2023-04-22T14:38:51;30.80;42.90
25334;DHT22;24559;53.590;9.764;2023-04-22T14:41:16;31.00;39.20
25334;DHT22;24559;53.590;9.764;2023-04-22T14:43:42;31.00;39.00
25334;DHT22;24559;53.590;9.764;2023-04-22T14:46:08;30.80;38.00
25334;DHT22;24559;53.590;9.764;2023-04-22T14:48:34;30.70;40.40
25334;DHT22;24559;53.590;9.764;2023-04-22T14:50:59;30.60;37.50
25334;DHT22;24559;53.590;9.764;2023-04-22T14:53:25;30.40;38.40
25334;DHT22;24559;53.590;9.764;2023-04-22T14:55:51;30.00;40.90
25334;DHT22;24559;53.590;9.764;2023-04-22T14:58:17;29.60;42.50
25334;DHT22;24559;53.590;9.764;2023-04-22T15:00:42;29.50;46.30
25334;DHT22;24559;53.590;9.764;2023-04-22T15:03:08;29.50;47.10
25334;DHT22;24559;53.590;9.764;2023-04-22T15:05:34;29.60;45.50
25334;DHT22;24559;53.590;9.764;2023-04-22T15:08:00;29.40;41.60
25334;DHT22;24559;53.590;9.764;2023-04-22T15:10:26;29.10;43.10
25334;DHT22;24559;53.590;9.764;2023-04-22T15:12:52;28.70;46.40
25334;DHT22;24559;53.590;9.764;2023-04-22T15:15:18;28.50;47.70
25334;DHT22;24559;53.590;9.764;2023-04-22T15:17:44;28.80;48.40
25334;DHT22;24559;53.590;9.764;2023-04-22T15:20:10;29.10;48.60
25334;DHT22;24559;53.590;9.764;2023-04-22T15:22:37;29.40;45.50
25334;DHT22;24559;53.590;9.764;2023-04-22T15:25:05;29.50;46.60
25334;DHT22;24559;53.590;9.764;2023-04-22T15:27:31;29.70;46.30
25334;DHT22;24559;53.590;9.764;2023-04-22T15:29:57;29.80;44.50
25334;DHT22;24559;53.590;9.764;2023-04-22T15:32:22;30.00;44.40
25334;DHT22;24559;53.590;9.764;2023-04-22T15:34:48;30.20;44.80
25334;DHT22;24559;53.590;9.764;2023-04-22T15:37:14;30.20;44.80
25334;DHT22;24559;53.590;9.764;2023-04-22T15:39:41;30.20;43.70